Terminal Aerodrome Forecast
Issued by NWS Charleston, WV

Current Version | Previous Version | Graphics & Text | Print | Product List | Glossary On
Versions: 1 2 3 4 5 6 7 8 9 10 11 12 13 14 15 16 17 18 19 20 21 22 23 24 25 26
000
FTUS41 KRLX 041725
TAFPKB
TAF
KPKB 041725Z 0418/0518 30004KT P6SM BKN250
     FM050400 00000KT 4SM BR SKC
     FM050900 00000KT 1/4SM FG BKN001
     FM051200 00000KT 1SM BR BKN002
     FM051300 00000KT P6SM SKC=

USA.gov is the U.S. government's official web portal to all federal, state and local government web resources and services.